sensor_id;sensor_type;location;lat;lon;timestamp;P1;durP1;ratioP1;P2;durP2;ratioP2
24279;SDS011;12395;42.808;23.408;2023-04-23T00:00:00;5.03;;;2.95;;
24279;SDS011;12395;42.808;23.408;2023-04-23T00:02:26;5.18;;;3.08;;
24279;SDS011;12395;42.808;23.408;2023-04-23T00:04:57;5.60;;;2.72;;
24279;SDS011;12395;42.808;23.408;2023-04-23T00:07:28;5.15;;;2.90;;
24279;SDS011;12395;42.808;23.408;2023-04-23T00:09:56;4.32;;;2.63;;
24279;SDS011;12395;42.808;23.408;2023-04-23T00:12:22;6.40;;;3.03;;
24279;SDS011;12395;42.808;23.408;2023-04-23T00:14:48;4.82;;;2.67;;
24279;SDS011;12395;42.808;23.408;2023-04-23T00:17:14;4.83;;;3.27;;
24279;SDS011;12395;42.808;23.408;2023-04-23T00:19:39;6.25;;;3.05;;
24279;SDS011;12395;42.808;23.408;2023-04-23T00:22:05;5.95;;;3.00;;
24279;SDS011;12395;42.808;23.408;2023-04-23T00:24:30;5.63;;;3.25;;
24279;SDS011;12395;42.808;23.408;2023-04-23T00:26:58;6.95;;;3.13;;
24279;SDS011;12395;42.808;23.408;2023-04-23T00:29:23;6.00;;;3.10;;
24279;SDS011;12395;42.808;23.408;2023-04-23T00:31:48;6.07;;;3.40;;
24279;SDS011;12395;42.808;23.408;2023-04-23T00:34:14;6.47;;;3.45;;
24279;SDS011;12395;42.808;23.408;2023-04-23T00:36:39;5.93;;;3.17;;
24279;SDS011;12395;42.808;23.408;2023-04-23T00:39:05;6.00;;;3.28;;
24279;SDS011;12395;42.808;23.408;2023-04-23T00:41:30;4.65;;;3.10;;
24279;SDS011;12395;42.808;23.408;2023-04-23T00:43:56;5.28;;;3.05;;
24279;SDS011;12395;42.808;23.408;2023-04-23T00:46:22;6.47;;;3.05;;
24279;SDS011;12395;42.808;23.408;2023-04-23T00:51:15;5.10;;;3.20;;
24279;SDS011;12395;42.808;23.408;2023-04-23T00:53:41;5.32;;;3.20;;
24279;SDS011;12395;42.808;23.408;2023-04-23T00:56:06;6.75;;;3.80;;
24279;SDS011;12395;42.808;23.408;2023-04-23T00:58:32;7.10;;;3.33;;
24279;SDS011;12395;42.808;23.408;2023-04-23T01:00:59;6.53;;;3.43;;
24279;SDS011;12395;42.808;23.408;2023-04-23T01:03:25;5.85;;;3.45;;
24279;SDS011;12395;42.808;23.408;2023-04-23T01:05:51;5.90;;;3.42;;
24279;SDS011;12395;42.808;23.408;2023-04-23T01:08:17;6.28;;;3.75;;
24279;SDS011;12395;42.808;23.408;2023-04-23T01:10:43;9.98;;;3.67;;
24279;SDS011;12395;42.808;23.408;2023-04-23T01:13:10;8.05;;;3.78;;
24279;SDS011;12395;42.808;23.408;2023-04-23T01:15:37;7.45;;;3.30;;
24279;SDS011;12395;42.808;23.408;2023-04-23T01:18:02;7.13;;;3.83;;
24279;SDS011;12395;42.808;23.408;2023-04-23T01:20:28;6.38;;;3.60;;
24279;SDS011;12395;42.808;23.408;2023-04-23T01:22:54;7.07;;;3.67;;
24279;SDS011;12395;42.808;23.408;2023-04-23T01:25:20;6.18;;;3.50;;
24279;SDS011;12395;42.808;23.408;2023-04-23T01:27:45;4.75;;;3.42;;
24279;SDS011;12395;42.808;23.408;2023-04-23T01:30:11;7.53;;;4.00;;
24279;SDS011;12395;42.808;23.408;2023-04-23T01:32:37;8.47;;;3.83;;
24279;SDS011;12395;42.808;23.408;2023-04-23T01:35:04;6.60;;;3.85;;
24279;SDS011;12395;42.808;23.408;2023-04-23T01:37:32;8.55;;;4.25;;
24279;SDS011;12395;42.808;23.408;2023-04-23T01:39:58;7.20;;;4.13;;
24279;SDS011;12395;42.808;23.408;2023-04-23T01:42:24;7.87;;;4.23;;
24279;SDS011;12395;42.808;23.408;2023-04-23T01:44:50;7.03;;;3.93;;
24279;SDS011;12395;42.808;23.408;2023-04-23T01:47:16;6.38;;;4.15;;
24279;SDS011;12395;42.808;23.408;2023-04-23T01:49:42;5.40;;;3.70;;
24279;SDS011;12395;42.808;23.408;2023-04-23T01:52:08;6.77;;;4.20;;
24279;SDS011;12395;42.808;23.408;2023-04-23T01:54:33;7.22;;;4.25;;
24279;SDS011;12395;42.808;23.408;2023-04-23T01:56:59;8.03;;;4.47;;
24279;SDS011;12395;42.808;23.408;2023-04-23T01:59:24;7.55;;;4.57;;
24279;SDS011;12395;42.808;23.408;2023-04-23T02:01:50;7.57;;;4.22;;
24279;SDS011;12395;42.808;23.408;2023-04-23T02:04:16;6.80;;;4.00;;
24279;SDS011;12395;42.808;23.408;2023-04-23T02:06:44;7.10;;;4.47;;
24279;SDS011;12395;42.808;23.408;2023-04-23T02:09:11;7.57;;;4.27;;
24279;SDS011;12395;42.808;23.408;2023-04-23T02:11:37;6.63;;;4.30;;
24279;SDS011;12395;42.808;23.408;2023-04-23T02:14:03;9.27;;;4.35;;
24279;SDS011;12395;42.808;23.408;2023-04-23T02:16:29;7.47;;;4.47;;
24279;SDS011;12395;42.808;23.408;2023-04-23T02:18:55;8.55;;;4.35;;
24279;SDS011;12395;42.808;23.408;2023-04-23T02:21:22;8.47;;;4.40;;
24279;SDS011;12395;42.808;23.408;2023-04-23T02:23:48;7.47;;;4.47;;
24279;SDS011;12395;42.808;23.408;2023-04-23T02:26:13;7.37;;;4.70;;
24279;SDS011;12395;42.808;23.408;2023-04-23T02:28:39;8.93;;;4.23;;
24279;SDS011;12395;42.808;23.408;2023-04-23T02:31:04;7.33;;;4.27;;
24279;SDS011;12395;42.808;23.408;2023-04-23T02:33:30;8.57;;;4.43;;
24279;SDS011;12395;42.808;23.408;2023-04-23T02:35:55;8.97;;;4.73;;
24279;SDS011;12395;42.808;23.408;2023-04-23T02:38:21;8.30;;;4.57;;
24279;SDS011;12395;42.808;23.408;2023-04-23T02:40:46;9.83;;;5.40;;
24279;SDS011;12395;42.808;23.408;2023-04-23T02:43:12;12.05;;;4.88;;
24279;SDS011;12395;42.808;23.408;2023-04-23T02:45:37;9.93;;;4.80;;
24279;SDS011;12395;42.808;23.408;2023-04-23T02:48:03;7.23;;;4.53;;
24279;SDS011;12395;42.808;23.408;2023-04-23T02:50:28;7.28;;;4.43;;
24279;SDS011;12395;42.808;23.408;2023-04-23T02:52:54;8.20;;;4.70;;
24279;SDS011;12395;42.808;23.408;2023-04-23T02:55:20;8.77;;;4.60;;
24279;SDS011;12395;42.808;23.408;2023-04-23T02:57:45;8.70;;;4.77;;
24279;SDS011;12395;42.808;23.408;2023-04-23T03:00:11;11.00;;;5.00;;
24279;SDS011;12395;42.808;23.408;2023-04-23T03:02:38;8.35;;;5.22;;
24279;SDS011;12395;42.808;23.408;2023-04-23T03:05:04;8.63;;;4.57;;
24279;SDS011;12395;42.808;23.408;2023-04-23T03:07:31;9.07;;;5.17;;
24279;SDS011;12395;42.808;23.408;2023-04-23T03:09:56;7.97;;;4.38;;
24279;SDS011;12395;42.808;23.408;2023-04-23T03:12:22;8.10;;;4.77;;
24279;SDS011;12395;42.808;23.408;2023-04-23T03:14:47;9.67;;;4.80;;
24279;SDS011;12395;42.808;23.408;2023-04-23T03:17:13;8.57;;;4.93;;
24279;SDS011;12395;42.808;23.408;2023-04-23T03:19:38;7.63;;;4.57;;
24279;SDS011;12395;42.808;23.408;2023-04-23T03:22:03;10.10;;;5.17;;
24279;SDS011;12395;42.808;23.408;2023-04-23T03:24:30;12.97;;;5.63;;
24279;SDS011;12395;42.808;23.408;2023-04-23T03:26:56;8.90;;;5.47;;
24279;SDS011;12395;42.808;23.408;2023-04-23T03:29:22;9.20;;;4.90;;
24279;SDS011;12395;42.808;23.408;2023-04-23T03:31:48;8.37;;;5.30;;
24279;SDS011;12395;42.808;23.408;2023-04-23T03:34:13;11.00;;;4.83;;
24279;SDS011;12395;42.808;23.408;2023-04-23T03:36:39;8.52;;;5.00;;
24279;SDS011;12395;42.808;23.408;2023-04-23T03:39:04;11.33;;;5.23;;
24279;SDS011;12395;42.808;23.408;2023-04-23T03:41:30;8.93;;;5.50;;
24279;SDS011;12395;42.808;23.408;2023-04-23T03:43:55;9.90;;;6.10;;
24279;SDS011;12395;42.808;23.408;2023-04-23T03:46:21;8.93;;;5.00;;
24279;SDS011;12395;42.808;23.408;2023-04-23T03:48:46;9.63;;;5.20;;
24279;SDS011;12395;42.808;23.408;2023-04-23T03:51:11;9.97;;;4.90;;
24279;SDS011;12395;42.808;23.408;2023-04-23T03:53:37;10.10;;;4.90;;
24279;SDS011;12395;42.808;23.408;2023-04-23T03:56:02;8.53;;;4.90;;
24279;SDS011;12395;42.808;23.408;2023-04-23T03:58:27;9.23;;;5.50;;
24279;SDS011;12395;42.808;23.408;2023-04-23T04:00:53;9.80;;;5.20;;
24279;SDS011;12395;42.808;23.408;2023-04-23T04:03:18;10.63;;;4.90;;
24279;SDS011;12395;42.808;23.408;2023-04-23T04:05:44;8.53;;;5.00;;
24279;SDS011;12395;42.808;23.408;2023-04-23T04:08:09;9.00;;;5.23;;
24279;SDS011;12395;42.808;23.408;2023-04-23T04:10:35;9.23;;;5.40;;
24279;SDS011;12395;42.808;23.408;2023-04-23T04:13:00;8.90;;;4.93;;
24279;SDS011;12395;42.808;23.408;2023-04-23T04:15:26;10.17;;;5.07;;
24279;SDS011;12395;42.808;23.408;2023-04-23T04:17:51;8.10;;;5.10;;
24279;SDS011;12395;42.808;23.408;2023-04-23T04:20:17;10.97;;;5.27;;
24279;SDS011;12395;42.808;23.408;2023-04-23T04:22:42;10.20;;;5.23;;
24279;SDS011;12395;42.808;23.408;2023-04-23T04:25:08;9.48;;;4.90;;
24279;SDS011;12395;42.808;23.408;2023-04-23T04:27:34;9.63;;;5.20;;
24279;SDS011;12395;42.808;23.408;2023-04-23T04:30:00;9.82;;;5.35;;
24279;SDS011;12395;42.808;23.408;2023-04-23T04:32:26;9.23;;;5.05;;
24279;SDS011;12395;42.808;23.408;2023-04-23T04:34:52;9.77;;;5.10;;
24279;SDS011;12395;42.808;23.408;2023-04-23T04:37:18;8.70;;;4.75;;
24279;SDS011;12395;42.808;23.408;2023-04-23T04:39:44;8.63;;;4.80;;
24279;SDS011;12395;42.808;23.408;2023-04-23T04:42:10;10.25;;;5.15;;
24279;SDS011;12395;42.808;23.408;2023-04-23T04:44:37;8.20;;;5.28;;
24279;SDS011;12395;42.808;23.408;2023-04-23T04:47:03;8.18;;;5.15;;
24279;SDS011;12395;42.808;23.408;2023-04-23T04:49:29;7.88;;;4.55;;
24279;SDS011;12395;42.808;23.408;2023-04-23T04:51:54;8.75;;;4.75;;
24279;SDS011;12395;42.808;23.408;2023-04-23T04:54:19;10.57;;;5.07;;
24279;SDS011;12395;42.808;23.408;2023-04-23T04:56:45;9.35;;;4.80;;
24279;SDS011;12395;42.808;23.408;2023-04-23T04:59:11;10.25;;;5.28;;
24279;SDS011;12395;42.808;23.408;2023-04-23T05:01:36;7.32;;;4.93;;
24279;SDS011;12395;42.808;23.408;2023-04-23T05:04:02;9.48;;;5.38;;
24279;SDS011;12395;42.808;23.408;2023-04-23T05:06:27;8.95;;;5.35;;
24279;SDS011;12395;42.808;23.408;2023-04-23T05:08:53;10.07;;;5.97;;
24279;SDS011;12395;42.808;23.408;2023-04-23T05:11:19;11.30;;;7.10;;
24279;SDS011;12395;42.808;23.408;2023-04-23T05:13:45;14.07;;;8.20;;
24279;SDS011;12395;42.808;23.408;2023-04-23T05:16:11;13.55;;;8.90;;
24279;SDS011;12395;42.808;23.408;2023-04-23T05:18:37;12.95;;;7.40;;
24279;SDS011;12395;42.808;23.408;2023-04-23T05:21:03;13.65;;;7.60;;
24279;SDS011;12395;42.808;23.408;2023-04-23T05:23:30;11.15;;;7.10;;
24279;SDS011;12395;42.808;23.408;2023-04-23T05:25:55;19.38;;;9.02;;
24279;SDS011;12395;42.808;23.408;2023-04-23T05:28:22;14.73;;;8.83;;
24279;SDS011;12395;42.808;23.408;2023-04-23T05:30:48;18.08;;;9.70;;
24279;SDS011;12395;42.808;23.408;2023-04-23T05:33:14;19.20;;;11.25;;
24279;SDS011;12395;42.808;23.408;2023-04-23T05:35:40;13.80;;;7.55;;
24279;SDS011;12395;42.808;23.408;2023-04-23T05:38:06;13.95;;;6.45;;
24279;SDS011;12395;42.808;23.408;2023-04-23T05:40:31;11.65;;;6.10;;
24279;SDS011;12395;42.808;23.408;2023-04-23T05:42:57;10.85;;;5.70;;
24279;SDS011;12395;42.808;23.408;2023-04-23T05:45:23;11.50;;;5.95;;
24279;SDS011;12395;42.808;23.408;2023-04-23T05:47:48;10.68;;;5.90;;
24279;SDS011;12395;42.808;23.408;2023-04-23T05:50:14;12.77;;;7.30;;
24279;SDS011;12395;42.808;23.408;2023-04-23T05:52:40;11.30;;;7.13;;
24279;SDS011;12395;42.808;23.408;2023-04-23T05:55:06;10.95;;;6.07;;
24279;SDS011;12395;42.808;23.408;2023-04-23T05:57:33;11.20;;;6.13;;
24279;SDS011;12395;42.808;23.408;2023-04-23T05:59:59;10.93;;;6.13;;
24279;SDS011;12395;42.808;23.408;2023-04-23T06:02:25;12.52;;;6.57;;
24279;SDS011;12395;42.808;23.408;2023-04-23T06:04:50;10.82;;;6.45;;
24279;SDS011;12395;42.808;23.408;2023-04-23T06:07:16;10.60;;;6.88;;
24279;SDS011;12395;42.808;23.408;2023-04-23T06:09:41;10.90;;;6.72;;
24279;SDS011;12395;42.808;23.408;2023-04-23T06:12:06;11.48;;;6.35;;
24279;SDS011;12395;42.808;23.408;2023-04-23T06:14:32;10.77;;;6.80;;
24279;SDS011;12395;42.808;23.408;2023-04-23T06:16:57;12.10;;;6.82;;
24279;SDS011;12395;42.808;23.408;2023-04-23T06:19:23;10.07;;;6.13;;
24279;SDS011;12395;42.808;23.408;2023-04-23T06:21:51;9.65;;;6.65;;
24279;SDS011;12395;42.808;23.408;2023-04-23T06:24:17;11.82;;;6.60;;
24279;SDS011;12395;42.808;23.408;2023-04-23T06:26:43;14.15;;;6.82;;
24279;SDS011;12395;42.808;23.408;2023-04-23T06:29:08;11.40;;;6.20;;
24279;SDS011;12395;42.808;23.408;2023-04-23T06:31:34;10.90;;;6.25;;
24279;SDS011;12395;42.808;23.408;2023-04-23T06:34:00;12.20;;;7.10;;
24279;SDS011;12395;42.808;23.408;2023-04-23T06:36:25;11.68;;;6.20;;
24279;SDS011;12395;42.808;23.408;2023-04-23T06:38:51;11.15;;;6.40;;
24279;SDS011;12395;42.808;23.408;2023-04-23T06:41:16;11.02;;;6.00;;
24279;SDS011;12395;42.808;23.408;2023-04-23T06:43:42;10.43;;;6.35;;
24279;SDS011;12395;42.808;23.408;2023-04-23T06:46:07;10.15;;;6.20;;
24279;SDS011;12395;42.808;23.408;2023-04-23T06:48:33;8.77;;;5.35;;
24279;SDS011;12395;42.808;23.408;2023-04-23T06:50:58;11.48;;;5.70;;
24279;SDS011;12395;42.808;23.408;2023-04-23T06:53:23;10.13;;;5.00;;
24279;SDS011;12395;42.808;23.408;2023-04-23T06:55:49;11.50;;;5.00;;
24279;SDS011;12395;42.808;23.408;2023-04-23T06:58:15;8.25;;;4.60;;
24279;SDS011;12395;42.808;23.408;2023-04-23T07:00:41;9.02;;;4.50;;
24279;SDS011;12395;42.808;23.408;2023-04-23T07:03:07;9.43;;;5.00;;
24279;SDS011;12395;42.808;23.408;2023-04-23T07:05:33;9.35;;;5.50;;
24279;SDS011;12395;42.808;23.408;2023-04-23T07:07:59;11.20;;;6.25;;
24279;SDS011;12395;42.808;23.408;2023-04-23T07:10:24;11.07;;;6.03;;
24279;SDS011;12395;42.808;23.408;2023-04-23T07:12:50;12.32;;;5.82;;
24279;SDS011;12395;42.808;23.408;2023-04-23T07:15:15;12.80;;;6.40;;
24279;SDS011;12395;42.808;23.408;2023-04-23T07:17:41;10.63;;;5.85;;
24279;SDS011;12395;42.808;23.408;2023-04-23T07:20:06;9.15;;;5.78;;
24279;SDS011;12395;42.808;23.408;2023-04-23T07:22:32;9.85;;;5.78;;
24279;SDS011;12395;42.808;23.408;2023-04-23T07:24:59;12.70;;;5.68;;
24279;SDS011;12395;42.808;23.408;2023-04-23T07:27:25;9.95;;;5.70;;
24279;SDS011;12395;42.808;23.408;2023-04-23T07:29:50;8.95;;;5.82;;
24279;SDS011;12395;42.808;23.408;2023-04-23T07:32:16;11.05;;;6.10;;
24279;SDS011;12395;42.808;23.408;2023-04-23T07:34:41;8.75;;;5.45;;
24279;SDS011;12395;42.808;23.408;2023-04-23T07:37:07;11.98;;;6.13;;
24279;SDS011;12395;42.808;23.408;2023-04-23T07:39:32;9.80;;;5.80;;
24279;SDS011;12395;42.808;23.408;2023-04-23T07:41:58;11.60;;;5.93;;
24279;SDS011;12395;42.808;23.408;2023-04-23T07:44:24;8.45;;;5.53;;
24279;SDS011;12395;42.808;23.408;2023-04-23T07:46:49;9.35;;;5.53;;
24279;SDS011;12395;42.808;23.408;2023-04-23T07:49:15;11.50;;;5.95;;
24279;SDS011;12395;42.808;23.408;2023-04-23T07:51:40;10.15;;;6.00;;
24279;SDS011;12395;42.808;23.408;2023-04-23T07:54:06;11.55;;;6.32;;
24279;SDS011;12395;42.808;23.408;2023-04-23T07:56:33;10.15;;;6.20;;
24279;SDS011;12395;42.808;23.408;2023-04-23T07:58:58;9.55;;;6.20;;
24279;SDS011;12395;42.808;23.408;2023-04-23T08:01:24;11.68;;;6.38;;
24279;SDS011;12395;42.808;23.408;2023-04-23T08:03:50;13.23;;;6.70;;
24279;SDS011;12395;42.808;23.408;2023-04-23T08:06:15;11.73;;;8.02;;
24279;SDS011;12395;42.808;23.408;2023-04-23T08:08:42;11.57;;;6.38;;
24279;SDS011;12395;42.808;23.408;2023-04-23T08:11:08;10.93;;;6.55;;
24279;SDS011;12395;42.808;23.408;2023-04-23T08:13:33;11.23;;;6.60;;
24279;SDS011;12395;42.808;23.408;2023-04-23T08:15:58;11.73;;;6.82;;
24279;SDS011;12395;42.808;23.408;2023-04-23T08:18:24;10.32;;;6.80;;
24279;SDS011;12395;42.808;23.408;2023-04-23T08:20:50;12.07;;;6.30;;
24279;SDS011;12395;42.808;23.408;2023-04-23T08:23:16;14.45;;;6.72;;
24279;SDS011;12395;42.808;23.408;2023-04-23T08:25:41;9.20;;;6.35;;
24279;SDS011;12395;42.808;23.408;2023-04-23T08:28:07;10.15;;;6.45;;
24279;SDS011;12395;42.808;23.408;2023-04-23T08:30:32;10.65;;;6.88;;
24279;SDS011;12395;42.808;23.408;2023-04-23T08:32:59;9.73;;;6.75;;
24279;SDS011;12395;42.808;23.408;2023-04-23T08:35:24;11.20;;;6.55;;
24279;SDS011;12395;42.808;23.408;2023-04-23T08:37:50;11.63;;;6.90;;
24279;SDS011;12395;42.808;23.408;2023-04-23T08:40:15;12.25;;;7.18;;
24279;SDS011;12395;42.808;23.408;2023-04-23T08:42:42;10.40;;;6.03;;
24279;SDS011;12395;42.808;23.408;2023-04-23T08:45:13;13.30;;;7.00;;
24279;SDS011;12395;42.808;23.408;2023-04-23T08:47:39;9.85;;;6.38;;
24279;SDS011;12395;42.808;23.408;2023-04-23T08:50:12;11.23;;;6.68;;
24279;SDS011;12395;42.808;23.408;2023-04-23T08:52:41;10.68;;;6.70;;
24279;SDS011;12395;42.808;23.408;2023-04-23T08:55:10;9.60;;;6.30;;
24279;SDS011;12395;42.808;23.408;2023-04-23T08:57:39;11.38;;;6.43;;
24279;SDS011;12395;42.808;23.408;2023-04-23T09:00:05;9.77;;;6.57;;
24279;SDS011;12395;42.808;23.408;2023-04-23T09:02:38;12.13;;;6.78;;
24279;SDS011;12395;42.808;23.408;2023-04-23T09:05:05;11.20;;;7.05;;
24279;SDS011;12395;42.808;23.408;2023-04-23T09:07:31;11.18;;;6.43;;
24279;SDS011;12395;42.808;23.408;2023-04-23T09:12:24;9.82;;;6.32;;
24279;SDS011;12395;42.808;23.408;2023-04-23T09:14:49;10.57;;;6.78;;
24279;SDS011;12395;42.808;23.408;2023-04-23T09:17:18;10.55;;;6.13;;
24279;SDS011;12395;42.808;23.408;2023-04-23T09:19:44;9.40;;;6.28;;
24279;SDS011;12395;42.808;23.408;2023-04-23T09:22:12;10.23;;;6.50;;
24279;SDS011;12395;42.808;23.408;2023-04-23T09:24:41;46.35;;;17.95;;
24279;SDS011;12395;42.808;23.408;2023-04-23T09:27:07;15.90;;;7.75;;
24279;SDS011;12395;42.808;23.408;2023-04-23T09:29:33;10.38;;;6.88;;
24279;SDS011;12395;42.808;23.408;2023-04-23T09:32:06;9.20;;;6.25;;
24279;SDS011;12395;42.808;23.408;2023-04-23T09:34:33;10.15;;;6.40;;
24279;SDS011;12395;42.808;23.408;2023-04-23T09:37:03;9.10;;;5.88;;
24279;SDS011;12395;42.808;23.408;2023-04-23T09:39:32;22.13;;;10.05;;
24279;SDS011;12395;42.808;23.408;2023-04-23T09:42:02;11.55;;;6.68;;
24279;SDS011;12395;42.808;23.408;2023-04-23T09:44:32;10.20;;;5.65;;
24279;SDS011;12395;42.808;23.408;2023-04-23T09:47:08;10.02;;;5.90;;
24279;SDS011;12395;42.808;23.408;2023-04-23T09:49:46;13.38;;;6.88;;
24279;SDS011;12395;42.808;23.408;2023-04-23T09:52:13;10.23;;;5.68;;
24279;SDS011;12395;42.808;23.408;2023-04-23T09:54:38;9.93;;;5.90;;
24279;SDS011;12395;42.808;23.408;2023-04-23T09:57:04;7.20;;;5.18;;
24279;SDS011;12395;42.808;23.408;2023-04-23T09:59:32;8.93;;;5.32;;
24279;SDS011;12395;42.808;23.408;2023-04-23T10:04:26;10.18;;;5.03;;
24279;SDS011;12395;42.808;23.408;2023-04-23T10:06:55;8.90;;;5.70;;
24279;SDS011;12395;42.808;23.408;2023-04-23T10:09:21;9.43;;;5.15;;
24279;SDS011;12395;42.808;23.408;2023-04-23T10:11:52;8.93;;;5.22;;
24279;SDS011;12395;42.808;23.408;2023-04-23T10:14:23;10.07;;;5.20;;
24279;SDS011;12395;42.808;23.408;2023-04-23T10:16:51;5.47;;;3.67;;
24279;SDS011;12395;42.808;23.408;2023-04-23T10:19:21;8.23;;;5.03;;
24279;SDS011;12395;42.808;23.408;2023-04-23T10:22:00;9.27;;;4.63;;
24279;SDS011;12395;42.808;23.408;2023-04-23T10:24:33;7.38;;;5.03;;
24279;SDS011;12395;42.808;23.408;2023-04-23T10:27:02;8.90;;;5.25;;
24279;SDS011;12395;42.808;23.408;2023-04-23T10:29:29;6.75;;;4.70;;
24279;SDS011;12395;42.808;23.408;2023-04-23T10:32:00;6.63;;;4.50;;
24279;SDS011;12395;42.808;23.408;2023-04-23T10:34:27;6.63;;;4.78;;
24279;SDS011;12395;42.808;23.408;2023-04-23T10:36:54;7.03;;;4.90;;
24279;SDS011;12395;42.808;23.408;2023-04-23T10:39:21;8.38;;;4.60;;
24279;SDS011;12395;42.808;23.408;2023-04-23T10:44:14;7.47;;;4.35;;
24279;SDS011;12395;42.808;23.408;2023-04-23T10:46:52;6.70;;;4.18;;
24279;SDS011;12395;42.808;23.408;2023-04-23T10:49:22;7.63;;;3.72;;
24279;SDS011;12395;42.808;23.408;2023-04-23T10:54:22;5.70;;;3.47;;
24279;SDS011;12395;42.808;23.408;2023-04-23T10:56:58;6.70;;;3.80;;
24279;SDS011;12395;42.808;23.408;2023-04-23T10:59:31;7.03;;;4.07;;
24279;SDS011;12395;42.808;23.408;2023-04-23T11:02:05;6.78;;;4.10;;
24279;SDS011;12395;42.808;23.408;2023-04-23T11:04:35;7.05;;;4.07;;
24279;SDS011;12395;42.808;23.408;2023-04-23T11:07:07;6.30;;;4.00;;
24279;SDS011;12395;42.808;23.408;2023-04-23T11:12:10;5.82;;;3.88;;
24279;SDS011;12395;42.808;23.408;2023-04-23T11:17:07;5.18;;;3.72;;
24279;SDS011;12395;42.808;23.408;2023-04-23T11:19:36;8.63;;;4.30;;
24279;SDS011;12395;42.808;23.408;2023-04-23T11:22:12;6.93;;;4.10;;
24279;SDS011;12395;42.808;23.408;2023-04-23T11:24:40;7.82;;;4.20;;
24279;SDS011;12395;42.808;23.408;2023-04-23T11:27:07;7.90;;;5.03;;
24279;SDS011;12395;42.808;23.408;2023-04-23T11:29:35;6.05;;;4.05;;
24279;SDS011;12395;42.808;23.408;2023-04-23T11:32:02;6.80;;;4.10;;
24279;SDS011;12395;42.808;23.408;2023-04-23T11:34:29;5.85;;;4.20;;
24279;SDS011;12395;42.808;23.408;2023-04-23T11:36:57;7.35;;;4.22;;
24279;SDS011;12395;42.808;23.408;2023-04-23T11:39:24;6.38;;;4.00;;
24279;SDS011;12395;42.808;23.408;2023-04-23T11:41:49;7.03;;;3.88;;
24279;SDS011;12395;42.808;23.408;2023-04-23T11:44:16;8.10;;;3.90;;
24279;SDS011;12395;42.808;23.408;2023-04-23T11:46:44;6.38;;;3.50;;
24279;SDS011;12395;42.808;23.408;2023-04-23T11:49:10;4.82;;;3.47;;
24279;SDS011;12395;42.808;23.408;2023-04-23T11:51:41;4.70;;;3.63;;
24279;SDS011;12395;42.808;23.408;2023-04-23T11:54:10;5.85;;;3.60;;
24279;SDS011;12395;42.808;23.408;2023-04-23T11:59:03;5.97;;;3.55;;
24279;SDS011;12395;42.808;23.408;2023-04-23T12:01:42;4.20;;;3.63;;
24279;SDS011;12395;42.808;23.408;2023-04-23T12:04:17;5.45;;;3.78;;
24279;SDS011;12395;42.808;23.408;2023-04-23T12:06:44;6.30;;;3.72;;
24279;SDS011;12395;42.808;23.408;2023-04-23T12:09:11;4.25;;;3.00;;
24279;SDS011;12395;42.808;23.408;2023-04-23T12:11:38;4.10;;;2.70;;
24279;SDS011;12395;42.808;23.408;2023-04-23T12:14:08;4.65;;;2.67;;
24279;SDS011;12395;42.808;23.408;2023-04-23T12:16:41;3.92;;;2.72;;
24279;SDS011;12395;42.808;23.408;2023-04-23T12:19:16;5.70;;;3.17;;
24279;SDS011;12395;42.808;23.408;2023-04-23T12:21:53;5.88;;;2.83;;
24279;SDS011;12395;42.808;23.408;2023-04-23T12:24:23;4.20;;;2.58;;
24279;SDS011;12395;42.808;23.408;2023-04-23T12:26:53;3.03;;;2.55;;
24279;SDS011;12395;42.808;23.408;2023-04-23T12:29:24;5.45;;;2.90;;
24279;SDS011;12395;42.808;23.408;2023-04-23T12:31:50;4.05;;;2.83;;
24279;SDS011;12395;42.808;23.408;2023-04-23T12:34:17;3.90;;;2.50;;
24279;SDS011;12395;42.808;23.408;2023-04-23T12:36:50;4.65;;;2.70;;
24279;SDS011;12395;42.808;23.408;2023-04-23T12:39:21;3.38;;;2.45;;
24279;SDS011;12395;42.808;23.408;2023-04-23T12:41:58;4.68;;;2.80;;
24279;SDS011;12395;42.808;23.408;2023-04-23T12:44:25;4.70;;;2.90;;
24279;SDS011;12395;42.808;23.408;2023-04-23T12:46:58;3.80;;;2.53;;
24279;SDS011;12395;42.808;23.408;2023-04-23T12:49:29;4.63;;;2.60;;
24279;SDS011;12395;42.808;23.408;2023-04-23T12:51:55;4.28;;;2.60;;
24279;SDS011;12395;42.808;23.408;2023-04-23T12:54:24;3.75;;;2.50;;
24279;SDS011;12395;42.808;23.408;2023-04-23T12:56:51;4.38;;;2.55;;
24279;SDS011;12395;42.808;23.408;2023-04-23T12:59:17;6.35;;;3.00;;
24279;SDS011;12395;42.808;23.408;2023-04-23T13:01:42;4.53;;;2.95;;
24279;SDS011;12395;42.808;23.408;2023-04-23T13:04:08;3.25;;;2.65;;
24279;SDS011;12395;42.808;23.408;2023-04-23T13:06:33;4.82;;;2.75;;
24279;SDS011;12395;42.808;23.408;2023-04-23T13:08:59;2.90;;;2.60;;
24279;SDS011;12395;42.808;23.408;2023-04-23T13:11:27;4.88;;;2.75;;
24279;SDS011;12395;42.808;23.408;2023-04-23T13:13:53;3.75;;;2.80;;
24279;SDS011;12395;42.808;23.408;2023-04-23T13:16:18;4.85;;;2.88;;
24279;SDS011;12395;42.808;23.408;2023-04-23T13:18:44;4.65;;;2.85;;
24279;SDS011;12395;42.808;23.408;2023-04-23T13:21:09;4.55;;;3.05;;
24279;SDS011;12395;42.808;23.408;2023-04-23T13:23:35;4.60;;;2.83;;
24279;SDS011;12395;42.808;23.408;2023-04-23T13:26:02;4.75;;;3.03;;
24279;SDS011;12395;42.808;23.408;2023-04-23T13:28:27;4.75;;;3.20;;
24279;SDS011;12395;42.808;23.408;2023-04-23T13:30:53;4.75;;;2.70;;
24279;SDS011;12395;42.808;23.408;2023-04-23T13:33:18;5.18;;;2.70;;
24279;SDS011;12395;42.808;23.408;2023-04-23T13:35:45;4.35;;;2.80;;
24279;SDS011;12395;42.808;23.408;2023-04-23T13:38:10;4.65;;;2.90;;
24279;SDS011;12395;42.808;23.408;2023-04-23T13:40:36;4.88;;;2.90;;
24279;SDS011;12395;42.808;23.408;2023-04-23T13:43:02;5.68;;;2.63;;
24279;SDS011;12395;42.808;23.408;2023-04-23T13:45:27;3.78;;;2.50;;
24279;SDS011;12395;42.808;23.408;2023-04-23T13:47:53;5.05;;;2.90;;
24279;SDS011;12395;42.808;23.408;2023-04-23T13:50:18;4.05;;;2.80;;
24279;SDS011;12395;42.808;23.408;2023-04-23T13:52:44;3.58;;;2.50;;
24279;SDS011;12395;42.808;23.408;2023-04-23T13:55:09;4.38;;;2.40;;
24279;SDS011;12395;42.808;23.408;2023-04-23T13:57:35;2.78;;;2.05;;
24279;SDS011;12395;42.808;23.408;2023-04-23T14:00:02;2.35;;;2.15;;
24279;SDS011;12395;42.808;23.408;2023-04-23T14:02:28;3.17;;;2.13;;
24279;SDS011;12395;42.808;23.408;2023-04-23T14:04:53;2.65;;;2.30;;
24279;SDS011;12395;42.808;23.408;2023-04-23T14:07:19;3.20;;;2.00;;
24279;SDS011;12395;42.808;23.408;2023-04-23T14:09:44;3.78;;;2.60;;
24279;SDS011;12395;42.808;23.408;2023-04-23T14:12:11;4.85;;;2.47;;
24279;SDS011;12395;42.808;23.408;2023-04-23T14:14:36;3.35;;;2.30;;
24279;SDS011;12395;42.808;23.408;2023-04-23T14:17:02;3.70;;;2.50;;
24279;SDS011;12395;42.808;23.408;2023-04-23T14:19:27;4.70;;;2.45;;
24279;SDS011;12395;42.808;23.408;2023-04-23T14:21:54;5.03;;;2.53;;
24279;SDS011;12395;42.808;23.408;2023-04-23T14:24:26;3.10;;;2.20;;
24279;SDS011;12395;42.808;23.408;2023-04-23T14:26:53;3.25;;;2.40;;
24279;SDS011;12395;42.808;23.408;2023-04-23T14:31:49;2.78;;;2.25;;
24279;SDS011;12395;42.808;23.408;2023-04-23T14:34:15;4.85;;;2.40;;
24279;SDS011;12395;42.808;23.408;2023-04-23T14:36:40;4.70;;;2.58;;
24279;SDS011;12395;42.808;23.408;2023-04-23T14:39:06;3.50;;;2.53;;
24279;SDS011;12395;42.808;23.408;2023-04-23T14:41:31;4.07;;;2.50;;
24279;SDS011;12395;42.808;23.408;2023-04-23T14:44:00;3.63;;;2.50;;
24279;SDS011;12395;42.808;23.408;2023-04-23T14:46:25;3.38;;;2.35;;
24279;SDS011;12395;42.808;23.408;2023-04-23T14:48:51;4.65;;;2.70;;